sensor_id;sensor_type;location;lat;lon;timestamp;pressure;altitude;pressure_sealevel;temperature;humidity
11621;BME280;5866;49.094;11.900;2023-07-31T00:01:06;96282.31;;;16.00;100.00
11621;BME280;5866;49.094;11.900;2023-07-31T00:03:33;96276.31;;;15.98;100.00
11621;BME280;5866;49.094;11.900;2023-07-31T00:06:01;96274.28;;;16.00;100.00
11621;BME280;5866;49.094;11.900;2023-07-31T00:08:30;96273.63;;;15.98;100.00
11621;BME280;5866;49.094;11.900;2023-07-31T00:10:58;96280.94;;;16.11;100.00
11621;BME280;5866;49.094;11.900;2023-07-31T00:13:25;96275.53;;;16.04;100.00
11621;BME280;5866;49.094;11.900;2023-07-31T00:15:53;96279.44;;;15.80;100.00
11621;BME280;5866;49.094;11.900;2023-07-31T00:18:21;96279.50;;;15.87;100.00
11621;BME280;5866;49.094;11.900;2023-07-31T00:20:48;96281.16;;;15.88;100.00
11621;BME280;5866;49.094;11.900;2023-07-31T00:23:16;96275.03;;;15.45;100.00
11621;BME280;5866;49.094;11.900;2023-07-31T00:25:45;96274.63;;;15.48;100.00
11621;BME280;5866;49.094;11.900;2023-07-31T00:28:12;96281.13;;;15.60;100.00
11621;BME280;5866;49.094;11.900;2023-07-31T00:30:40;96272.22;;;15.53;100.00
11621;BME280;5866;49.094;11.900;2023-07-31T00:33:07;96281.81;;;15.69;100.00
11621;BME280;5866;49.094;11.900;2023-07-31T00:35:35;96285.56;;;15.74;100.00
11621;BME280;5866;49.094;11.900;2023-07-31T00:38:02;96278.13;;;15.49;100.00
11621;BME280;5866;49.094;11.900;2023-07-31T00:40:34;96278.00;;;15.57;100.00
11621;BME280;5866;49.094;11.900;2023-07-31T00:43:03;96272.78;;;15.70;100.00
11621;BME280;5866;49.094;11.900;2023-07-31T00:45:32;96275.31;;;15.78;100.00
11621;BME280;5866;49.094;11.900;2023-07-31T00:48:00;96271.81;;;15.77;100.00
11621;BME280;5866;49.094;11.900;2023-07-31T00:50:28;96264.13;;;15.68;100.00
11621;BME280;5866;49.094;11.900;2023-07-31T00:52:56;96262.84;;;15.64;100.00
11621;BME280;5866;49.094;11.900;2023-07-31T00:55:24;96266.53;;;15.63;100.00
11621;BME280;5866;49.094;11.900;2023-07-31T00:57:52;96273.06;;;15.54;100.00
11621;BME280;5866;49.094;11.900;2023-07-31T01:00:23;96267.66;;;15.33;100.00
11621;BME280;5866;49.094;11.900;2023-07-31T01:02:51;96262.03;;;15.28;100.00
11621;BME280;5866;49.094;11.900;2023-07-31T01:05:25;96250.22;;;15.37;100.00
11621;BME280;5866;49.094;11.900;2023-07-31T01:08:04;96262.31;;;15.33;100.00
11621;BME280;5866;49.094;11.900;2023-07-31T01:10:37;96258.66;;;15.55;100.00
11621;BME280;5866;49.094;11.900;2023-07-31T01:13:08;96248.53;;;15.50;100.00
11621;BME280;5866;49.094;11.900;2023-07-31T01:15:36;96253.47;;;15.74;100.00
11621;BME280;5866;49.094;11.900;2023-07-31T01:18:05;96248.56;;;15.78;100.00
11621;BME280;5866;49.094;11.900;2023-07-31T01:20:33;96245.88;;;15.78;100.00
11621;BME280;5866;49.094;11.900;2023-07-31T01:23:26;96248.41;;;15.86;100.00
11621;BME280;5866;49.094;11.900;2023-07-31T01:26:05;96242.97;;;15.73;100.00
11621;BME280;5866;49.094;11.900;2023-07-31T01:28:46;96244.25;;;15.77;100.00
11621;BME280;5866;49.094;11.900;2023-07-31T01:31:20;96237.44;;;15.74;100.00
11621;BME280;5866;49.094;11.900;2023-07-31T01:33:49;96242.69;;;15.89;100.00
11621;BME280;5866;49.094;11.900;2023-07-31T01:36:17;96245.31;;;15.82;100.00
11621;BME280;5866;49.094;11.900;2023-07-31T01:38:45;96241.28;;;15.93;100.00
11621;BME280;5866;49.094;11.900;2023-07-31T01:41:16;96238.06;;;16.04;100.00
11621;BME280;5866;49.094;11.900;2023-07-31T01:43:44;96242.53;;;15.97;100.00
11621;BME280;5866;49.094;11.900;2023-07-31T01:46:11;96238.59;;;15.93;100.00
11621;BME280;5866;49.094;11.900;2023-07-31T01:48:39;96231.63;;;15.71;100.00
11621;BME280;5866;49.094;11.900;2023-07-31T01:51:07;96231.13;;;15.61;100.00
11621;BME280;5866;49.094;11.900;2023-07-31T01:53:34;96223.50;;;15.79;100.00
11621;BME280;5866;49.094;11.900;2023-07-31T01:56:02;96230.28;;;15.54;100.00
11621;BME280;5866;49.094;11.900;2023-07-31T01:58:31;96224.53;;;15.57;100.00
11621;BME280;5866;49.094;11.900;2023-07-31T02:00:58;96225.56;;;15.56;100.00
11621;BME280;5866;49.094;11.900;2023-07-31T02:03:26;96230.00;;;15.49;100.00
11621;BME280;5866;49.094;11.900;2023-07-31T02:05:54;96224.53;;;15.57;100.00
11621;BME280;5866;49.094;11.900;2023-07-31T02:08:21;96230.22;;;15.47;100.00
11621;BME280;5866;49.094;11.900;2023-07-31T02:10:49;96219.94;;;15.51;100.00
11621;BME280;5866;49.094;11.900;2023-07-31T02:13:16;96224.94;;;15.54;100.00
11621;BME280;5866;49.094;11.900;2023-07-31T02:15:46;96221.34;;;15.68;100.00
11621;BME280;5866;49.094;11.900;2023-07-31T02:18:13;96217.03;;;15.46;100.00
11621;BME280;5866;49.094;11.900;2023-07-31T02:20:41;96208.47;;;15.57;100.00
11621;BME280;5866;49.094;11.900;2023-07-31T02:23:09;96214.22;;;15.54;100.00
11621;BME280;5866;49.094;11.900;2023-07-31T02:25:36;96206.91;;;15.62;100.00
11621;BME280;5866;49.094;11.900;2023-07-31T02:28:04;96211.47;;;15.26;100.00
11621;BME280;5866;49.094;11.900;2023-07-31T02:30:31;96212.56;;;15.53;100.00
11621;BME280;5866;49.094;11.900;2023-07-31T02:33:00;96196.94;;;15.56;100.00
11621;BME280;5866;49.094;11.900;2023-07-31T02:35:28;96208.50;;;15.84;100.00
11621;BME280;5866;49.094;11.900;2023-07-31T02:37:56;96206.84;;;15.56;100.00
11621;BME280;5866;49.094;11.900;2023-07-31T02:40:23;96197.53;;;15.73;100.00
11621;BME280;5866;49.094;11.900;2023-07-31T02:42:51;96189.97;;;15.13;100.00
11621;BME280;5866;49.094;11.900;2023-07-31T02:45:18;96186.22;;;15.50;100.00
11621;BME280;5866;49.094;11.900;2023-07-31T02:47:46;96182.22;;;15.67;100.00
11621;BME280;5866;49.094;11.900;2023-07-31T02:50:15;96187.94;;;15.57;100.00
11621;BME280;5866;49.094;11.900;2023-07-31T02:52:42;96199.91;;;15.89;100.00
11621;BME280;5866;49.094;11.900;2023-07-31T02:55:10;96194.38;;;15.97;100.00
11621;BME280;5866;49.094;11.900;2023-07-31T02:57:37;96196.22;;;15.69;100.00
11621;BME280;5866;49.094;11.900;2023-07-31T03:00:06;96193.19;;;16.00;100.00
11621;BME280;5866;49.094;11.900;2023-07-31T03:02:34;96190.88;;;16.31;100.00
11621;BME280;5866;49.094;11.900;2023-07-31T03:05:02;96191.72;;;16.31;100.00
11621;BME280;5866;49.094;11.900;2023-07-31T03:07:31;96198.03;;;16.24;100.00
11621;BME280;5866;49.094;11.900;2023-07-31T03:09:58;96198.56;;;16.06;100.00
11621;BME280;5866;49.094;11.900;2023-07-31T03:12:27;96193.13;;;15.93;100.00
11621;BME280;5866;49.094;11.900;2023-07-31T03:14:54;96204.13;;;15.77;100.00
11621;BME280;5866;49.094;11.900;2023-07-31T03:17:22;96202.91;;;15.52;100.00
11621;BME280;5866;49.094;11.900;2023-07-31T03:19:50;96207.06;;;15.40;100.00
11621;BME280;5866;49.094;11.900;2023-07-31T03:22:17;96200.44;;;15.36;100.00
11621;BME280;5866;49.094;11.900;2023-07-31T03:24:46;96195.00;;;15.23;100.00
11621;BME280;5866;49.094;11.900;2023-07-31T03:27:14;96198.94;;;15.05;100.00
11621;BME280;5866;49.094;11.900;2023-07-31T03:29:41;96200.22;;;15.09;100.00
11621;BME280;5866;49.094;11.900;2023-07-31T03:32:09;96199.94;;;15.04;100.00
11621;BME280;5866;49.094;11.900;2023-07-31T03:34:36;96198.31;;;15.25;100.00
11621;BME280;5866;49.094;11.900;2023-07-31T03:37:04;96194.59;;;15.26;100.00
11621;BME280;5866;49.094;11.900;2023-07-31T03:39:32;96197.28;;;15.26;100.00
11621;BME280;5866;49.094;11.900;2023-07-31T03:42:01;96202.56;;;15.19;100.00
11621;BME280;5866;49.094;11.900;2023-07-31T03:44:29;96207.66;;;15.14;100.00
11621;BME280;5866;49.094;11.900;2023-07-31T03:46:56;96204.38;;;15.19;100.00
11621;BME280;5866;49.094;11.900;2023-07-31T03:49:24;96204.16;;;15.35;100.00
11621;BME280;5866;49.094;11.900;2023-07-31T03:51:51;96199.81;;;15.55;100.00
11621;BME280;5866;49.094;11.900;2023-07-31T03:54:19;96198.81;;;15.35;100.00
11621;BME280;5866;49.094;11.900;2023-07-31T03:56:47;96195.50;;;15.33;100.00
11621;BME280;5866;49.094;11.900;2023-07-31T03:59:15;96194.66;;;15.32;100.00
11621;BME280;5866;49.094;11.900;2023-07-31T04:01:43;96195.38;;;15.20;100.00
11621;BME280;5866;49.094;11.900;2023-07-31T04:04:11;96213.94;;;15.28;100.00
11621;BME280;5866;49.094;11.900;2023-07-31T04:06:38;96203.13;;;15.14;100.00
11621;BME280;5866;49.094;11.900;2023-07-31T04:09:06;96197.28;;;15.04;100.00
11621;BME280;5866;49.094;11.900;2023-07-31T04:11:34;96200.78;;;15.26;100.00
11621;BME280;5866;49.094;11.900;2023-07-31T04:14:01;96193.22;;;15.51;100.00
11621;BME280;5866;49.094;11.900;2023-07-31T04:16:30;96192.69;;;15.62;100.00
11621;BME280;5866;49.094;11.900;2023-07-31T04:18:58;96187.94;;;15.57;100.00
11621;BME280;5866;49.094;11.900;2023-07-31T04:21:26;96188.50;;;15.53;100.00
11621;BME280;5866;49.094;11.900;2023-07-31T04:23:53;96183.00;;;15.19;100.00
11621;BME280;5866;49.094;11.900;2023-07-31T04:26:22;96179.28;;;15.55;100.00
11621;BME280;5866;49.094;11.900;2023-07-31T04:28:50;96184.22;;;15.86;100.00
11621;BME280;5866;49.094;11.900;2023-07-31T04:31:17;96176.06;;;16.35;100.00
11621;BME280;5866;49.094;11.900;2023-07-31T04:33:46;96179.56;;;16.76;100.00
11621;BME280;5866;49.094;11.900;2023-07-31T04:36:14;96180.97;;;17.78;100.00
11621;BME280;5866;49.094;11.900;2023-07-31T04:38:42;96173.47;;;18.19;93.20
11621;BME280;5866;49.094;11.900;2023-07-31T04:41:09;96170.81;;;18.77;88.06
11621;BME280;5866;49.094;11.900;2023-07-31T04:43:37;96172.09;;;19.43;79.58
11621;BME280;5866;49.094;11.900;2023-07-31T04:46:05;96172.22;;;19.55;77.57
11621;BME280;5866;49.094;11.900;2023-07-31T04:48:33;96174.91;;;20.04;76.16
11621;BME280;5866;49.094;11.900;2023-07-31T04:51:02;96164.66;;;20.85;70.60
11621;BME280;5866;49.094;11.900;2023-07-31T04:53:29;96163.19;;;21.60;66.04
11621;BME280;5866;49.094;11.900;2023-07-31T04:55:57;96160.78;;;22.17;62.85
11621;BME280;5866;49.094;11.900;2023-07-31T04:58:25;96152.41;;;23.04;59.02
11621;BME280;5866;49.094;11.900;2023-07-31T05:00:52;96151.56;;;23.60;56.37
11621;BME280;5866;49.094;11.900;2023-07-31T05:03:20;96151.13;;;23.35;56.12
11621;BME280;5866;49.094;11.900;2023-07-31T05:05:47;96148.72;;;22.82;56.79
11621;BME280;5866;49.094;11.900;2023-07-31T05:08:16;96152.16;;;21.62;60.31
11621;BME280;5866;49.094;11.900;2023-07-31T05:10:44;96153.31;;;21.43;62.89
11621;BME280;5866;49.094;11.900;2023-07-31T05:13:12;96154.53;;;21.17;64.18
11621;BME280;5866;49.094;11.900;2023-07-31T05:15:40;96156.69;;;21.38;64.47
11621;BME280;5866;49.094;11.900;2023-07-31T05:18:08;96153.66;;;21.46;63.65
11621;BME280;5866;49.094;11.900;2023-07-31T05:20:36;96154.66;;;20.74;67.39
11621;BME280;5866;49.094;11.900;2023-07-31T05:23:03;96147.34;;;20.27;71.35
11621;BME280;5866;49.094;11.900;2023-07-31T05:25:32;96141.44;;;19.94;73.83
11621;BME280;5866;49.094;11.900;2023-07-31T05:28:00;96137.63;;;20.44;72.97
11621;BME280;5866;49.094;11.900;2023-07-31T05:30:29;96145.13;;;21.72;66.55
11621;BME280;5866;49.094;11.900;2023-07-31T05:32:57;96141.63;;;22.30;62.96
11621;BME280;5866;49.094;11.900;2023-07-31T05:35:24;96137.19;;;23.15;58.92
11621;BME280;5866;49.094;11.900;2023-07-31T05:37:52;96132.19;;;24.01;55.82
11621;BME280;5866;49.094;11.900;2023-07-31T05:40:20;96128.34;;;24.52;53.99
11621;BME280;5866;49.094;11.900;2023-07-31T05:42:48;96132.28;;;24.23;54.32
11621;BME280;5866;49.094;11.900;2023-07-31T05:45:16;96142.81;;;25.01;53.19
11621;BME280;5866;49.094;11.900;2023-07-31T05:47:44;96135.06;;;24.88;51.65
11621;BME280;5866;49.094;11.900;2023-07-31T05:50:11;96136.78;;;24.01;53.79
11621;BME280;5866;49.094;11.900;2023-07-31T05:52:40;96123.19;;;23.79;56.48
11621;BME280;5866;49.094;11.900;2023-07-31T05:55:08;96125.19;;;24.60;53.87
11621;BME280;5866;49.094;11.900;2023-07-31T05:57:36;96131.28;;;25.64;50.71
11621;BME280;5866;49.094;11.900;2023-07-31T06:00:06;96129.88;;;26.30;49.75
11621;BME280;5866;49.094;11.900;2023-07-31T06:02:34;96126.38;;;26.86;48.28
11621;BME280;5866;49.094;11.900;2023-07-31T06:05:04;96132.03;;;27.72;45.10
11621;BME280;5866;49.094;11.900;2023-07-31T06:07:32;96136.94;;;27.54;45.99
11621;BME280;5866;49.094;11.900;2023-07-31T06:10:00;96134.22;;;27.39;46.42
11621;BME280;5866;49.094;11.900;2023-07-31T06:12:29;96133.41;;;26.30;48.89
11621;BME280;5866;49.094;11.900;2023-07-31T06:14:57;96137.34;;;26.08;49.35
11621;BME280;5866;49.094;11.900;2023-07-31T06:17:26;96135.00;;;25.89;48.95
11621;BME280;5866;49.094;11.900;2023-07-31T06:19:54;96133.59;;;25.82;48.38
11621;BME280;5866;49.094;11.900;2023-07-31T06:22:22;96126.66;;;26.38;47.53
11621;BME280;5866;49.094;11.900;2023-07-31T06:24:49;96138.22;;;26.65;46.65
11621;BME280;5866;49.094;11.900;2023-07-31T06:27:17;96130.13;;;26.75;46.96
11621;BME280;5866;49.094;11.900;2023-07-31T06:29:44;96127.94;;;27.49;45.43
11621;BME280;5866;49.094;11.900;2023-07-31T06:32:12;96128.75;;;28.50;42.85
11621;BME280;5866;49.094;11.900;2023-07-31T06:34:41;96137.50;;;27.72;44.22
11621;BME280;5866;49.094;11.900;2023-07-31T06:37:09;96136.69;;;28.11;43.51
11621;BME280;5866;49.094;11.900;2023-07-31T06:39:37;96140.00;;;28.03;43.67
11621;BME280;5866;49.094;11.900;2023-07-31T06:42:05;96134.16;;;28.55;43.56
11621;BME280;5866;49.094;11.900;2023-07-31T06:44:33;96123.91;;;28.12;42.32
11621;BME280;5866;49.094;11.900;2023-07-31T06:47:01;96126.31;;;27.48;44.01
11621;BME280;5866;49.094;11.900;2023-07-31T06:49:29;96130.34;;;26.17;45.72
11621;BME280;5866;49.094;11.900;2023-07-31T06:51:58;96139.66;;;25.09;48.56
11621;BME280;5866;49.094;11.900;2023-07-31T06:54:26;96121.19;;;24.68;49.65
11621;BME280;5866;49.094;11.900;2023-07-31T06:56:54;96121.28;;;24.73;51.10
11621;BME280;5866;49.094;11.900;2023-07-31T06:59:21;96120.75;;;25.19;49.04
11621;BME280;5866;49.094;11.900;2023-07-31T07:01:49;96120.59;;;26.26;47.41
11621;BME280;5866;49.094;11.900;2023-07-31T07:04:16;96118.22;;;26.86;45.52
11621;BME280;5866;49.094;11.900;2023-07-31T07:06:44;96117.25;;;27.27;44.34
11621;BME280;5866;49.094;11.900;2023-07-31T07:09:13;96121.69;;;27.79;43.57
11621;BME280;5866;49.094;11.900;2023-07-31T07:11:40;96121.72;;;28.09;44.03
11621;BME280;5866;49.094;11.900;2023-07-31T07:14:08;96119.75;;;28.35;42.40
11621;BME280;5866;49.094;11.900;2023-07-31T07:16:36;96122.50;;;27.69;42.94
11621;BME280;5866;49.094;11.900;2023-07-31T07:19:04;96121.19;;;26.80;44.80
11621;BME280;5866;49.094;11.900;2023-07-31T07:21:32;96126.59;;;27.62;43.01
11621;BME280;5866;49.094;11.900;2023-07-31T07:24:00;96124.50;;;26.40;45.42
11621;BME280;5866;49.094;11.900;2023-07-31T07:26:28;96128.50;;;25.95;46.78
11621;BME280;5866;49.094;11.900;2023-07-31T07:28:56;96130.91;;;25.55;47.37
11621;BME280;5866;49.094;11.900;2023-07-31T07:31:26;96129.78;;;26.15;47.15
11621;BME280;5866;49.094;11.900;2023-07-31T07:33:54;96125.91;;;26.47;47.08
11621;BME280;5866;49.094;11.900;2023-07-31T07:36:23;96117.31;;;27.37;45.25
11621;BME280;5866;49.094;11.900;2023-07-31T07:38:51;96123.00;;;26.69;45.25
11621;BME280;5866;49.094;11.900;2023-07-31T07:41:18;96120.16;;;26.39;46.25
11621;BME280;5866;49.094;11.900;2023-07-31T07:43:47;96123.28;;;25.89;46.88
11621;BME280;5866;49.094;11.900;2023-07-31T07:46:15;96124.94;;;25.53;47.68
11621;BME280;5866;49.094;11.900;2023-07-31T07:48:42;96131.97;;;25.54;47.10
11621;BME280;5866;49.094;11.900;2023-07-31T07:51:10;96130.88;;;25.87;46.84
11621;BME280;5866;49.094;11.900;2023-07-31T07:53:37;96123.63;;;27.83;43.37
11621;BME280;5866;49.094;11.900;2023-07-31T07:56:05;96123.06;;;27.91;42.99
11621;BME280;5866;49.094;11.900;2023-07-31T07:58:32;96124.34;;;27.28;43.41
11621;BME280;5866;49.094;11.900;2023-07-31T08:01:01;96133.38;;;27.39;44.25
11621;BME280;5866;49.094;11.900;2023-07-31T08:03:29;96133.00;;;27.05;44.24
11621;BME280;5866;49.094;11.900;2023-07-31T08:05:58;96125.31;;;26.87;44.55
11621;BME280;5866;49.094;11.900;2023-07-31T08:08:25;96140.44;;;25.89;46.39
11621;BME280;5866;49.094;11.900;2023-07-31T08:10:53;96141.84;;;24.69;49.46
11621;BME280;5866;49.094;11.900;2023-07-31T08:13:20;96143.69;;;24.25;49.77
11621;BME280;5866;49.094;11.900;2023-07-31T08:15:48;96152.44;;;24.32;49.99
11621;BME280;5866;49.094;11.900;2023-07-31T08:18:17;96138.88;;;24.70;49.55
11621;BME280;5866;49.094;11.900;2023-07-31T08:20:45;96140.72;;;24.26;49.70
11621;BME280;5866;49.094;11.900;2023-07-31T08:23:13;96141.41;;;24.00;50.51
11621;BME280;5866;49.094;11.900;2023-07-31T08:25:40;96131.94;;;24.19;50.81
11621;BME280;5866;49.094;11.900;2023-07-31T08:28:08;96135.88;;;24.28;51.16
11621;BME280;5866;49.094;11.900;2023-07-31T08:30:35;96130.13;;;24.63;52.60
11621;BME280;5866;49.094;11.900;2023-07-31T08:33:03;96130.94;;;25.07;48.61
11621;BME280;5866;49.094;11.900;2023-07-31T08:35:32;96126.91;;;24.88;48.91
11621;BME280;5866;49.094;11.900;2023-07-31T08:38:00;96119.44;;;24.57;50.46
11621;BME280;5866;49.094;11.900;2023-07-31T08:40:28;96122.69;;;25.23;49.44
11621;BME280;5866;49.094;11.900;2023-07-31T08:42:56;96119.34;;;26.07;47.56
11621;BME280;5866;49.094;11.900;2023-07-31T08:45:28;96122.44;;;26.62;45.49
11621;BME280;5866;49.094;11.900;2023-07-31T08:47:56;96125.31;;;26.87;44.96
11621;BME280;5866;49.094;11.900;2023-07-31T08:50:24;96126.41;;;26.91;44.89
11621;BME280;5866;49.094;11.900;2023-07-31T08:52:53;96121.88;;;27.27;45.10
11621;BME280;5866;49.094;11.900;2023-07-31T08:55:24;96108.06;;;28.19;42.82
11621;BME280;5866;49.094;11.900;2023-07-31T08:57:52;96113.41;;;28.74;42.64
11621;BME280;5866;49.094;11.900;2023-07-31T09:00:20;96108.84;;;28.35;43.12
11621;BME280;5866;49.094;11.900;2023-07-31T09:02:54;96111.59;;;27.49;43.39
11621;BME280;5866;49.094;11.900;2023-07-31T09:05:26;96103.06;;;26.07;44.55
11621;BME280;5866;49.094;11.900;2023-07-31T09:07:55;96095.34;;;25.30;46.99
11621;BME280;5866;49.094;11.900;2023-07-31T09:10:23;96098.00;;;25.83;45.31
11621;BME280;5866;49.094;11.900;2023-07-31T09:12:51;96097.84;;;25.10;47.24
11621;BME280;5866;49.094;11.900;2023-07-31T09:15:20;96088.44;;;23.76;48.83
11621;BME280;5866;49.094;11.900;2023-07-31T09:18:04;96094.13;;;23.58;50.09
11621;BME280;5866;49.094;11.900;2023-07-31T09:20:32;96097.81;;;23.52;51.08
11621;BME280;5866;49.094;11.900;2023-07-31T09:23:07;96090.50;;;23.36;50.68
11621;BME280;5866;49.094;11.900;2023-07-31T09:25:35;96088.13;;;23.73;49.66
11621;BME280;5866;49.094;11.900;2023-07-31T09:28:05;96096.47;;;23.38;52.08
11621;BME280;5866;49.094;11.900;2023-07-31T09:30:45;96087.56;;;24.04;49.32
11621;BME280;5866;49.094;11.900;2023-07-31T09:33:14;96090.13;;;23.60;50.80
11621;BME280;5866;49.094;11.900;2023-07-31T09:35:41;96082.19;;;22.81;52.40
11621;BME280;5866;49.094;11.900;2023-07-31T09:38:12;96076.78;;;24.30;50.95
11621;BME280;5866;49.094;11.900;2023-07-31T09:40:41;96068.75;;;24.35;50.02
11621;BME280;5866;49.094;11.900;2023-07-31T09:43:10;96079.38;;;25.65;47.50
11621;BME280;5866;49.094;11.900;2023-07-31T09:45:40;96077.19;;;25.99;46.15
11621;BME280;5866;49.094;11.900;2023-07-31T09:48:09;96065.72;;;26.34;45.89
11621;BME280;5866;49.094;11.900;2023-07-31T09:50:37;96057.63;;;26.49;44.64
11621;BME280;5866;49.094;11.900;2023-07-31T09:53:05;96057.28;;;27.07;43.97
11621;BME280;5866;49.094;11.900;2023-07-31T09:55:35;96057.81;;;27.04;44.00
11621;BME280;5866;49.094;11.900;2023-07-31T09:58:04;96051.34;;;27.30;43.58
11621;BME280;5866;49.094;11.900;2023-07-31T10:00:32;96050.84;;;26.05;45.65
11621;BME280;5866;49.094;11.900;2023-07-31T10:03:01;96053.09;;;24.42;48.05
11621;BME280;5866;49.094;11.900;2023-07-31T10:05:34;96047.09;;;24.62;48.98
11621;BME280;5866;49.094;11.900;2023-07-31T10:08:03;96049.69;;;25.27;47.38
11621;BME280;5866;49.094;11.900;2023-07-31T10:10:31;96039.41;;;25.61;46.43
11621;BME280;5866;49.094;11.900;2023-07-31T10:13:01;96045.50;;;24.44;49.04
11621;BME280;5866;49.094;11.900;2023-07-31T10:15:29;96040.94;;;24.23;49.81
11621;BME280;5866;49.094;11.900;2023-07-31T10:17:58;96038.34;;;24.77;49.04
11621;BME280;5866;49.094;11.900;2023-07-31T10:20:26;96031.19;;;25.92;46.29
11621;BME280;5866;49.094;11.900;2023-07-31T10:22:56;96033.69;;;26.51;46.18
11621;BME280;5866;49.094;11.900;2023-07-31T10:25:26;96023.53;;;27.13;44.14
11621;BME280;5866;49.094;11.900;2023-07-31T10:27:54;96023.59;;;27.59;43.38
11621;BME280;5866;49.094;11.900;2023-07-31T10:30:27;96015.16;;;27.50;42.17
11621;BME280;5866;49.094;11.900;2023-07-31T10:32:55;96022.31;;;26.64;43.26
11621;BME280;5866;49.094;11.900;2023-07-31T10:35:25;96007.53;;;26.40;45.54
11621;BME280;5866;49.094;11.900;2023-07-31T10:37:52;96004.09;;;25.29;48.16
11621;BME280;5866;49.094;11.900;2023-07-31T10:40:25;95999.06;;;24.14;50.34
11621;BME280;5866;49.094;11.900;2023-07-31T10:42:54;96003.53;;;23.49;50.51
11621;BME280;5866;49.094;11.900;2023-07-31T10:45:30;95998.06;;;24.69;48.18
11621;BME280;5866;49.094;11.900;2023-07-31T10:47:58;95998.72;;;25.71;46.55
11621;BME280;5866;49.094;11.900;2023-07-31T10:50:29;96001.50;;;25.81;46.76
11621;BME280;5866;49.094;11.900;2023-07-31T10:52:59;96002.28;;;25.08;47.84
11621;BME280;5866;49.094;11.900;2023-07-31T10:55:30;95992.84;;;25.89;44.99
11621;BME280;5866;49.094;11.900;2023-07-31T10:58:05;95995.66;;;26.66;44.74
11621;BME280;5866;49.094;11.900;2023-07-31T11:00:37;96007.69;;;25.08;47.46
11621;BME280;5866;49.094;11.900;2023-07-31T11:03:06;95996.78;;;25.30;45.91
11621;BME280;5866;49.094;11.900;2023-07-31T11:05:43;96000.66;;;24.80;48.19
11621;BME280;5866;49.094;11.900;2023-07-31T11:08:12;95989.47;;;24.50;48.56
11621;BME280;5866;49.094;11.900;2023-07-31T11:10:40;95987.38;;;25.42;47.54
11621;BME280;5866;49.094;11.900;2023-07-31T11:13:08;95985.25;;;25.49;44.83
11621;BME280;5866;49.094;11.900;2023-07-31T11:15:37;95976.50;;;26.36;43.68
11621;BME280;5866;49.094;11.900;2023-07-31T11:18:05;95972.50;;;26.53;43.98
11621;BME280;5866;49.094;11.900;2023-07-31T11:20:36;95964.69;;;26.72;42.39
11621;BME280;5866;49.094;11.900;2023-07-31T11:23:06;95954.59;;;27.83;41.23
11621;BME280;5866;49.094;11.900;2023-07-31T11:25:34;95956.94;;;28.20;41.15
11621;BME280;5866;49.094;11.900;2023-07-31T11:28:04;95962.00;;;27.12;42.21
11621;BME280;5866;49.094;11.900;2023-07-31T11:30:32;95948.38;;;27.17;41.85
11621;BME280;5866;49.094;11.900;2023-07-31T11:33:03;95960.88;;;26.88;42.01
11621;BME280;5866;49.094;11.900;2023-07-31T11:35:32;95948.84;;;26.54;42.43
11621;BME280;5866;49.094;11.900;2023-07-31T11:38:00;95946.66;;;26.71;44.56
11621;BME280;5866;49.094;11.900;2023-07-31T11:40:27;95939.97;;;28.28;44.44
11621;BME280;5866;49.094;11.900;2023-07-31T11:43:03;95939.88;;;29.36;39.74
11621;BME280;5866;49.094;11.900;2023-07-31T11:45:31;95940.47;;;29.85;38.25
11621;BME280;5866;49.094;11.900;2023-07-31T11:48:03;95938.56;;;29.57;38.61
11621;BME280;5866;49.094;11.900;2023-07-31T11:50:33;95930.66;;;29.27;37.53
11621;BME280;5866;49.094;11.900;2023-07-31T11:53:06;95929.13;;;29.16;38.33
11621;BME280;5866;49.094;11.900;2023-07-31T11:55:35;95919.53;;;29.47;37.99
11621;BME280;5866;49.094;11.900;2023-07-31T11:58:03;95918.56;;;29.33;37.29
11621;BME280;5866;49.094;11.900;2023-07-31T12:00:31;95927.91;;;28.44;40.08
11621;BME280;5866;49.094;11.900;2023-07-31T12:02:59;95916.81;;;28.74;39.14
11621;BME280;5866;49.094;11.900;2023-07-31T12:05:28;95903.72;;;29.44;39.55
11621;BME280;5866;49.094;11.900;2023-07-31T12:07:57;95910.31;;;29.95;38.19
11621;BME280;5866;49.094;11.900;2023-07-31T12:10:29;95906.28;;;30.11;37.54
11621;BME280;5866;49.094;11.900;2023-07-31T12:12:57;95896.13;;;30.35;37.71
11621;BME280;5866;49.094;11.900;2023-07-31T12:15:38;95904.56;;;29.68;36.99
11621;BME280;5866;49.094;11.900;2023-07-31T12:18:07;95896.41;;;30.10;37.57
11621;BME280;5866;49.094;11.900;2023-07-31T12:20:40;95898.59;;;29.90;36.58
11621;BME280;5866;49.094;11.900;2023-07-31T12:23:13;95894.66;;;30.19;36.29
11621;BME280;5866;49.094;11.900;2023-07-31T12:25:41;95888.31;;;30.47;37.17
11621;BME280;5866;49.094;11.900;2023-07-31T12:28:09;95879.91;;;30.20;37.15
11621;BME280;5866;49.094;11.900;2023-07-31T12:30:39;95892.44;;;30.45;37.97
11621;BME280;5866;49.094;11.900;2023-07-31T12:33:14;95883.16;;;30.22;36.00
11621;BME280;5866;49.094;11.900;2023-07-31T12:35:45;95887.56;;;29.71;37.56
11621;BME280;5866;49.094;11.900;2023-07-31T12:38:13;95886.69;;;27.82;40.78
11621;BME280;5866;49.094;11.900;2023-07-31T12:40:41;95890.75;;;27.99;40.30
11621;BME280;5866;49.094;11.900;2023-07-31T12:43:09;95893.75;;;27.93;40.59
11621;BME280;5866;49.094;11.900;2023-07-31T12:45:36;95895.00;;;27.01;42.13
11621;BME280;5866;49.094;11.900;2023-07-31T12:48:04;95891.72;;;26.64;43.70
11621;BME280;5866;49.094;11.900;2023-07-31T12:50:32;95884.88;;;26.46;44.91
11621;BME280;5866;49.094;11.900;2023-07-31T12:53:04;95874.03;;;27.27;42.24
11621;BME280;5866;49.094;11.900;2023-07-31T12:55:32;95861.50;;;27.36;41.81
11621;BME280;5866;49.094;11.900;2023-07-31T12:58:01;95875.53;;;27.83;40.77
11621;BME280;5866;49.094;11.900;2023-07-31T13:00:28;95867.06;;;27.80;40.78
11621;BME280;5866;49.094;11.900;2023-07-31T13:02:56;95859.56;;;27.51;42.30
11621;BME280;5866;49.094;11.900;2023-07-31T13:05:24;95856.38;;;26.89;42.10